Terminal Aerodrome Forecast
Issued by NWS Shreveport, LA

Home | Current Version | Previous Version | Text Only | Print | Product List | Glossary On
Versions: 1 2 3 4 5 6 7 8 9 10 11 12 13 14 15
000
FTUS44 KSHV 300700 AAA
TAFMLU
TAF AMD
KMLU 300704Z 3007/3106 16003KT P6SM -SHRA BKN100 OVC250
      TEMPO 3007/3010 5SM -SHRA BR SCT050 OVC080
     FM301000 VRB03KT 5SM -SHRA BR OVC050
      TEMPO 3010/3012 3SM -RA OVC015
     FM301200 VRB03KT 4SM -RA BR BKN007 OVC012
     FM301800 20010KT 6SM -RA BR VCTS BKN030CB=

USA.gov is the U.S. government's official web portal to all federal, state and local government web resources and services.